Shanghai Dawn — 3FMN2 — position and weather

sailwx.info

Track history (hours):
 
Tides and Currents Weather Stations Pressure Air Temp Water Temp Dewpoint Dewpoint Depression Visibility Wind Speed Wind Dir Waves Ship Positions

Shanghai Dawn

Last reported at 2016-Aug-18 16:21 UTC. Time now 2016-Sep-25 00:23 UTC.
Position N 01°15' E 104°06'.
Warning: this ship's position is 37 days out of date.

Length 246 m; draft 13.5 m.

Type: Tanker. MMSI: 356075000.

Date/timePositionNaut miles runAvg speedWind from/ knotsBaromVisibWave heightAir tempDewpointWater temp
2016-Aug-18 16:21N 01°15' E 104°06'910.8
2016-Aug-18 15:33N 01°14' E 103°57'10 9.9
2016-Aug-18 14:33N 01°10' E 103°48'15 0.4
2016-Aug-17 01:10N 01°08' E 103°33'0 0.2
2016-Aug-16 23:28N 01°08' E 103°33'3 3.2
2016-Aug-16 22:28N 01°08' E 103°36'0 0.0
2016-Aug-16 18:08N 01°08' E 103°36'0 0.0
2016-Aug-16 07:26N 01°08' E 103°36'4 3.9
2016-Aug-16 06:18N 01°11' E 103°40'14 7.7
2016-Aug-16 04:33N 01°13' E 103°53'3 0.2
2016-Aug-15 11:13N 01°15' E 103°55'3 0.5
2016-Aug-15 04:26N 01°16' E 103°58'4 4.9
2016-Aug-15 03:32N 01°16' E 104°03'  
Track history (hours):
 
Tides and Currents Weather Stations Pressure Air Temp Water Temp Dewpoint Dewpoint Depression Visibility Wind Speed Wind Dir Waves Ship Positions

Shanghai Dawn

Last reported at 2016-Aug-18 16:21 UTC. Time now 2016-Sep-25 00:23 UTC.
Position N 01°15' E 104°06'.
Warning: this ship's position is 37 days out of date.

Length 246 m; draft 13.5 m.

Type: Tanker. MMSI: 356075000.

Date/timePositionNaut miles runAvg speedWind from/ knotsBaromVisibWave heightAir tempDewpointWater temp
2016-Aug-18 16:21N 01°15' E 104°06'910.8
2016-Aug-18 15:33N 01°14' E 103°57'10 9.9
2016-Aug-18 14:33N 01°10' E 103°48'15 0.4
2016-Aug-17 01:10N 01°08' E 103°33'0 0.2
2016-Aug-16 23:28N 01°08' E 103°33'3 3.2
2016-Aug-16 22:28N 01°08' E 103°36'0 0.0
2016-Aug-16 18:08N 01°08' E 103°36'0 0.0
2016-Aug-16 07:26N 01°08' E 103°36'4 3.9
2016-Aug-16 06:18N 01°11' E 103°40'14 7.7
2016-Aug-16 04:33N 01°13' E 103°53'3 0.2
2016-Aug-15 11:13N 01°15' E 103°55'3 0.5
2016-Aug-15 04:26N 01°16' E 103°58'4 4.9
2016-Aug-15 03:32N 01°16' E 104°03'  

Dump ship's entire track history